Averill, Vermont
Current Conditions -  °F | °C
As of 4:55 PM on Thursday 23 Oct 2014 (Local Time) from KEFK Reporting Station
Light Rain Light Rain  
Wind Chill: 38°   Ceiling: 700
Heat Index: 45°   Visibility: 10mi
Dew Point: 44°   Wind: 14mph
Humidity: 96%   Direction: 350°N
Pressure: 29.91"   Gusts: NA
Location:  45°N, 71.71°W
Report Text: KEFK 232055Z AUTO 35012KT 10SM -RA OVC007 07/06 A2991 RMK AO2 T00700064
Loading
Personal Weather Stations






























Interactive Weather Map
Tropical Storm Tracking
New forecast layout! Learn more

10-Day Weather Forecast

Advertisements
Track Severe Weather on mobile